Time;durP1;ratioP1;P1;durP2;ratioP2;P2;SDS_P1;SDS_P2;PMS_P1;PMS_P2;Temp;Humidity;BMP_temperature;BMP_pressure;BME280_temperature;BME280_humidity;BME280_pressure;Samples;Min_cycle;Max_cycle;Signal;HPM_P1;HPM_P2
2023/10/25 00:01:43;;;;;;;15.05;5.10;;;;;;;9.09;100.00;100022.72;5009630;28;20022;-71
2023/10/25 00:04:08;;;;;;;17.10;5.65;;;;;;;9.05;100.00;100031.16;5012056;28;20101;-72
2023/10/25 00:06:34;;;;;;;16.60;5.20;;;;;;;9.01;100.00;100025.16;5009377;28;20032;-71
2023/10/25 00:08:59;;;;;;;18.70;6.28;;;;;;;8.98;100.00;100029.94;5009389;28;20034;-71
2023/10/25 00:11:25;;;;;;;15.95;5.78;;;;;;;8.94;100.00;100025.78;5009309;28;20121;-72
2023/10/25 00:13:51;;;;;;;18.35;6.10;;;;;;;8.90;100.00;100017.13;5009951;28;20034;-71
2023/10/25 00:16:16;;;;;;;15.68;6.10;;;;;;;8.88;100.00;100017.25;5010258;28;20564;-71
2023/10/25 00:18:41;;;;;;;19.73;5.70;;;;;;;8.84;100.00;100022.97;4989005;28;20026;-72
2023/10/25 00:21:07;;;;;;;21.67;5.95;;;;;;;8.84;100.00;100012.25;5004440;28;20025;-71
2023/10/25 00:23:32;;;;;;;21.25;6.47;;;;;;;8.83;100.00;100007.84;5009446;28;20108;-73
2023/10/25 00:25:57;;;;;;;16.75;5.50;;;;;;;8.79;100.00;100009.09;5014811;28;20415;-71
2023/10/25 00:28:22;;;;;;;20.02;7.07;;;;;;;8.76;100.00;100010.19;4997779;28;20025;-72
2023/10/25 00:30:48;;;;;;;18.80;5.97;;;;;;;8.74;100.00;100013.00;4993296;28;20034;-71
2023/10/25 00:33:13;;;;;;;19.92;6.53;;;;;;;8.69;100.00;100015.16;5014710;28;20065;-73
2023/10/25 00:35:38;;;;;;;19.13;6.22;;;;;;;8.68;100.00;100016.16;5016130;28;20036;-73
2023/10/25 00:38:04;;;;;;;24.58;6.53;;;;;;;8.63;100.00;100018.34;5028191;28;20022;-73
2023/10/25 00:40:29;;;;;;;20.45;5.78;;;;;;;8.65;100.00;100013.69;5021031;28;20029;-73
2023/10/25 00:43:20;;;;;;;16.98;5.97;;;;;;;8.65;100.00;100012.84;5026398;28;20030;-73
2023/10/25 00:46:02;;;;;;;19.38;6.00;;;;;;;8.64;100.00;100016.50;5020237;28;20056;-72
2023/10/25 00:48:29;;;;;;;17.75;5.88;;;;;;;8.58;100.00;100017.88;5035721;28;20025;-72
2023/10/25 00:50:54;;;;;;;17.20;5.82;;;;;;;8.56;100.00;100020.66;5029194;28;20118;-72
2023/10/25 00:53:20;;;;;;;17.50;6.45;;;;;;;8.51;100.00;100017.47;5033407;28;20053;-72
2023/10/25 00:55:46;;;;;;;16.38;5.55;;;;;;;8.51;100.00;100012.13;5036833;28;20018;-72
2023/10/25 00:58:11;;;;;;;15.02;5.32;;;;;;;8.50;100.00;100006.88;5029021;28;20041;-72
2023/10/25 01:00:38;;;;;;;17.40;5.10;;;;;;;8.45;100.00;100004.56;5026561;28;20046;-70
2023/10/25 01:03:07;;;;;;;16.80;5.25;;;;;;;8.47;100.00;99996.41;5015227;28;20048;-70
2023/10/25 01:05:32;;;;;;;14.60;5.32;;;;;;;8.43;100.00;99998.44;5004273;28;20036;-70
2023/10/25 01:07:58;;;;;;;13.57;4.95;;;;;;;8.42;100.00;99991.41;5014362;28;20030;-70
2023/10/25 01:10:23;;;;;;;16.48;4.80;;;;;;;8.39;100.00;99989.81;5009885;28;20030;-71
2023/10/25 01:12:48;;;;;;;12.65;4.50;;;;;;;8.42;100.00;99991.41;5003001;28;20026;-70
2023/10/25 01:15:14;;;;;;;16.45;5.40;;;;;;;8.42;100.00;99991.41;5015556;28;20117;-70
2023/10/25 01:17:39;;;;;;;16.77;5.30;;;;;;;8.43;100.00;99985.03;5006683;28;20088;-70
2023/10/25 01:20:06;;;;;;;19.83;4.68;;;;;;;8.42;100.00;99987.84;5014166;28;20114;-70
2023/10/25 01:22:31;;;;;;;18.30;5.22;;;;;;;8.39;100.00;99981.78;5015134;28;20038;-70
2023/10/25 01:24:57;;;;;;;12.77;4.68;;;;;;;8.38;100.00;99980.06;5014814;28;20387;-70
2023/10/25 01:27:22;;;;;;;18.40;4.80;;;;;;;8.40;100.00;99971.91;5015975;28;20034;-70
2023/10/25 01:29:47;;;;;;;11.82;4.30;;;;;;;8.37;100.00;99972.16;5021779;28;20334;-71
2023/10/25 01:32:12;;;;;;;13.98;4.63;;;;;;;8.38;100.00;99955.97;5021335;28;20029;-71
2023/10/25 01:34:38;;;;;;;16.30;4.35;;;;;;;8.37;100.00;99956.06;5022086;28;20090;-70
2023/10/25 01:37:03;;;;;;;12.90;3.90;;;;;;;8.36;100.00;99955.25;5013956;28;20136;-71
2023/10/25 01:39:28;;;;;;;15.25;4.20;;;;;;;8.37;100.00;99956.06;5021928;28;20018;-70
2023/10/25 01:41:54;;;;;;;11.40;3.78;;;;;;;8.33;100.00;99950.13;5019995;28;20052;-70
2023/10/25 01:44:19;;;;;;;16.70;4.72;;;;;;;8.35;100.00;99939.28;5011551;28;20033;-71
2023/10/25 01:46:44;;;;;;;14.52;4.68;;;;;;;8.33;100.00;99936.75;5011546;28;20045;-71
2023/10/25 01:49:09;;;;;;;13.73;4.18;;;;;;;8.30;100.00;99939.66;5012273;28;20502;-70
2023/10/25 01:51:35;;;;;;;16.70;4.63;;;;;;;8.29;100.00;99935.28;5011013;28;20045;-70
2023/10/25 01:54:00;;;;;;;15.57;4.50;;;;;;;8.31;100.00;99936.00;5014520;28;20519;-70
2023/10/25 01:56:25;;;;;;;16.15;4.28;;;;;;;8.32;100.00;99935.03;5011120;28;20113;-70
2023/10/25 01:58:50;;;;;;;14.32;4.75;;;;;;;8.36;100.00;99927.59;5021481;28;20384;-71
2023/10/25 02:01:16;;;;;;;13.85;4.68;;;;;;;8.37;100.00;99924.78;5021024;28;20489;-70
2023/10/25 02:03:41;;;;;;;18.52;4.57;;;;;;;8.40;100.00;99926.38;5013931;28;20049;-70
2023/10/25 02:06:13;;;;;;;18.02;4.72;;;;;;;8.42;100.00;99931.63;5018537;28;20436;-70
2023/10/25 02:08:39;;;;;;;9.98;3.67;;;;;;;8.47;100.00;99932.16;5013790;28;20033;-70
2023/10/25 02:11:06;;;;;;;10.73;3.60;;;;;;;8.51;100.00;99930.94;5024478;28;20034;-70
2023/10/25 02:13:31;;;;;;;13.65;4.43;;;;;;;8.52;100.00;99925.47;5015790;28;20402;-70
2023/10/25 02:15:57;;;;;;;13.43;3.63;;;;;;;8.57;100.00;99919.72;5015388;28;20113;-70
2023/10/25 02:18:22;;;;;;;14.68;4.20;;;;;;;8.54;100.00;99912.78;5020195;28;20495;-70
2023/10/25 02:20:47;;;;;;;13.85;4.13;;;;;;;8.59;100.00;99914.25;5017857;28;20114;-70
2023/10/25 02:23:12;;;;;;;11.88;3.92;;;;;;;8.58;100.00;99908.06;5013718;28;20038;-72
2023/10/25 02:25:38;;;;;;;12.77;4.18;;;;;;;8.63;100.00;99902.31;5008042;28;20447;-72
2023/10/25 02:28:03;;;;;;;11.68;3.50;;;;;;;8.64;100.00;99898.66;5007437;28;20076;-72
2023/10/25 02:30:28;;;;;;;13.02;3.78;;;;;;;8.66;100.00;99899.38;5000380;28;20028;-71
2023/10/25 02:32:54;;;;;;;11.27;3.28;;;;;;;8.64;100.00;99890.59;5006892;28;20031;-71
2023/10/25 02:35:19;;;;;;;10.23;3.03;;;;;;;8.67;100.00;99888.56;5024857;28;20033;-73
2023/10/25 02:37:44;;;;;;;10.93;3.40;;;;;;;8.67;100.00;99883.19;5030211;28;20038;-73
2023/10/25 02:40:10;;;;;;;14.02;4.00;;;;;;;8.70;100.00;99877.59;5016150;28;20124;-73
2023/10/25 02:42:35;;;;;;;9.68;3.65;;;;;;;8.74;100.00;99872.81;5027509;28;20035;-73
2023/10/25 02:45:01;;;;;;;8.70;3.13;;;;;;;8.75;100.00;99874.53;5031515;28;20037;-73
2023/10/25 02:47:29;;;;;;;10.98;3.53;;;;;;;8.75;100.00;99869.16;5035321;28;20022;-73
2023/10/25 02:49:54;;;;;;;13.05;3.63;;;;;;;8.77;100.00;99866.38;5027307;28;20030;-73
2023/10/25 02:52:21;;;;;;;12.85;3.65;;;;;;;8.76;100.00;99870.03;5025436;28;20046;-73
2023/10/25 02:54:46;;;;;;;15.98;3.30;;;;;;;8.77;100.00;99867.25;5026196;28;20034;-73
2023/10/25 02:57:11;;;;;;;9.35;3.10;;;;;;;8.77;100.00;99859.19;5026003;28;20026;-73
2023/10/25 02:59:36;;;;;;;14.07;3.35;;;;;;;8.77;100.00;99856.53;5015251;28;20029;-73
2023/10/25 03:02:02;;;;;;;10.10;3.47;;;;;;;8.82;100.00;99853.47;5024969;28;20099;-73
2023/10/25 03:04:31;;;;;;;8.48;3.22;;;;;;;8.86;100.00;99846.88;5029210;28;20030;-73
2023/10/25 03:06:56;;;;;;;8.43;3.17;;;;;;;8.86;100.00;99845.03;5021735;28;20095;-72
2023/10/25 03:09:21;;;;;;;13.27;3.97;;;;;;;8.88;100.00;99836.88;5025030;28;20090;-72
2023/10/25 03:11:46;;;;;;;11.23;3.30;;;;;;;8.94;100.00;99840.88;5018788;28;20033;-72
2023/10/25 03:14:12;;;;;;;13.10;3.45;;;;;;;8.95;100.00;99834.53;5011169;28;20488;-73
2023/10/25 03:16:37;;;;;;;16.98;3.60;;;;;;;8.98;100.00;99835.13;5027387;28;20109;-73
2023/10/25 03:19:02;;;;;;;13.38;3.70;;;;;;;8.97;100.00;99825.38;5025942;28;20044;-73
2023/10/25 03:21:27;;;;;;;11.63;2.88;;;;;;;8.98;100.00;99820.91;5036867;28;20041;-73
2023/10/25 03:23:53;;;;;;;9.05;3.15;;;;;;;9.00;100.00;99825.13;5015340;28;20033;-71
2023/10/25 03:26:18;;;;;;;12.82;3.92;;;;;;;9.04;100.00;99823.91;5014806;28;20516;-70
2023/10/25 03:28:43;;;;;;;11.48;3.22;;;;;;;9.06;100.00;99813.91;5004382;28;20742;-71
2023/10/25 03:31:09;;;;;;;14.95;3.40;;;;;;;9.09;100.00;99818.16;5011281;28;20110;-70
2023/10/25 03:33:35;;;;;;;10.75;3.83;;;;;;;9.12;100.00;99817.03;5012540;28;20030;-71
2023/10/25 03:36:00;;;;;;;12.13;3.30;;;;;;;9.12;100.00;99817.88;5017757;28;20022;-72
2023/10/25 03:38:26;;;;;;;8.00;3.08;;;;;;;9.12;100.00;99817.03;5024831;28;20159;-72
2023/10/25 03:41:06;;;;;;;12.02;3.40;;;;;;;9.12;100.00;99806.31;5036990;28;20613;-72
2023/10/25 03:43:32;;;;;;;15.65;3.50;;;;;;;9.13;100.00;99808.03;5022492;28;20112;-72
2023/10/25 03:46:02;;;;;;;17.35;4.45;;;;;;;9.10;100.00;99809.97;5037127;28;20096;-72
2023/10/25 03:48:27;;;;;;;15.80;3.80;;;;;;;9.13;100.00;99805.34;5029403;28;20048;-72
2023/10/25 03:50:53;;;;;;;11.27;3.40;;;;;;;9.12;100.00;99809.00;5030335;28;20034;-72
2023/10/25 03:53:18;;;;;;;14.57;3.70;;;;;;;9.15;100.00;99808.75;5021116;28;20086;-72
2023/10/25 03:55:57;;;;;;;10.45;3.63;;;;;;;9.16;100.00;99802.41;5029987;28;20021;-73
2023/10/25 03:58:23;;;;;;;11.77;3.50;;;;;;;9.16;100.00;99794.38;5029913;28;20073;-72
2023/10/25 04:01:05;;;;;;;13.27;3.53;;;;;;;9.15;100.00;99790.84;5021381;28;20014;-72
2023/10/25 04:03:31;;;;;;;16.90;3.92;;;;;;;9.18;100.00;99787.03;5033364;28;20133;-72
2023/10/25 04:05:57;;;;;;;13.68;3.83;;;;;;;9.19;100.00;99799.47;5030049;28;20034;-72
2023/10/25 04:08:26;;;;;;;8.90;3.03;;;;;;;9.23;100.00;99792.88;5028869;28;20076;-72
2023/10/25 04:10:53;;;;;;;11.35;3.08;;;;;;;9.21;100.00;99794.81;5020815;28;20048;-72
2023/10/25 04:13:19;;;;;;;13.07;3.70;;;;;;;9.23;100.00;99790.19;5030212;28;20037;-73
2023/10/25 04:16:00;;;;;;;15.13;4.22;;;;;;;9.22;100.00;99785.81;5015014;28;20442;-73
2023/10/25 04:18:30;;;;;;;16.27;3.50;;;;;;;9.20;100.00;99785.94;5031927;28;20080;-73
2023/10/25 04:20:57;;;;;;;17.23;4.50;;;;;;;9.21;100.00;99795.69;5027653;28;20085;-73
2023/10/25 04:23:23;;;;;;;12.02;3.55;;;;;;;9.23;100.00;99800.91;5028415;28;20026;-73
2023/10/25 04:25:49;;;;;;;11.18;3.63;;;;;;;9.25;100.00;99788.22;5028396;28;20057;-73
2023/10/25 04:28:14;;;;;;;11.40;3.80;;;;;;;9.26;100.00;99789.94;5032351;28;20124;-72
2023/10/25 04:30:40;;;;;;;13.05;3.53;;;;;;;9.25;100.00;99785.53;5015764;28;20041;-72
2023/10/25 04:33:06;;;;;;;10.93;3.55;;;;;;;9.28;100.00;99779.91;5027706;28;20030;-73
2023/10/25 04:35:31;;;;;;;13.93;3.50;;;;;;;9.26;100.00;99776.53;5028304;28;20065;-72
2023/10/25 04:37:57;;;;;;;14.77;4.03;;;;;;;9.27;100.00;99772.88;5027777;28;20026;-72
2023/10/25 04:40:22;;;;;;;15.15;3.92;;;;;;;9.30;100.00;99777.09;5024317;28;20044;-72
2023/10/25 04:42:50;;;;;;;18.33;4.13;;;;;;;9.31;100.00;99774.28;5026441;28;20040;-72
2023/10/25 04:45:15;;;;;;;14.63;4.45;;;;;;;9.31;100.00;99768.91;5017101;28;20510;-71
2023/10/25 04:47:41;;;;;;;13.80;4.00;;;;;;;9.32;100.00;99759.91;5016529;28;20222;-72
2023/10/25 04:50:06;;;;;;;10.50;3.90;;;;;;;9.35;100.00;99764.16;5016935;28;20583;-71
2023/10/25 04:52:32;;;;;;;11.85;3.70;;;;;;;9.35;100.00;99753.44;5002448;28;20037;-71
2023/10/25 04:54:57;;;;;;;16.98;4.95;;;;;;;9.36;100.00;99755.16;5009907;28;20092;-71
2023/10/25 04:57:23;;;;;;;12.43;3.80;;;;;;;9.33;100.00;99750.88;5009044;28;20033;-71
2023/10/25 04:59:48;;;;;;;12.35;4.13;;;;;;;9.35;100.00;99742.72;4999888;28;20057;-72
2023/10/25 05:02:14;;;;;;;10.00;3.60;;;;;;;9.35;100.00;99740.03;5009486;28;20171;-71
2023/10/25 05:04:39;;;;;;;14.90;4.00;;;;;;;9.38;100.00;99742.44;4993289;28;20379;-71
2023/10/25 05:07:05;;;;;;;11.75;3.53;;;;;;;9.37;100.00;99735.38;5005410;28;20033;-71
2023/10/25 05:09:34;;;;;;;12.45;3.80;;;;;;;9.38;100.00;99731.72;5002864;28;20132;-71
2023/10/25 05:12:04;;;;;;;16.20;4.73;;;;;;;9.38;100.00;99729.88;5005402;28;20553;-71
2023/10/25 05:14:29;;;;;;;;;;;;;;;9.41;100.00;99726.09;5009024;28;20091;-71
2023/10/25 05:16:55;;;;;;;15.52;4.05;;;;;;;9.38;100.00;99721.00;4997188;28;20258;-72
2023/10/25 05:19:21;;;;;;;21.70;4.97;;;;;;;9.37;100.00;99717.47;5006312;28;20034;-72
2023/10/25 05:21:49;;;;;;;12.00;3.90;;;;;;;9.38;100.00;99713.78;5005410;28;20036;-71
2023/10/25 05:24:15;;;;;;;14.80;4.35;;;;;;;9.39;100.00;99707.44;5012873;28;20030;-71
2023/10/25 05:26:41;;;;;;;13.35;4.35;;;;;;;9.36;100.00;99697.00;5004072;28;20505;-71
2023/10/25 05:29:07;;;;;;;16.08;4.15;;;;;;;9.37;100.00;99704.06;5015934;28;20030;-71
2023/10/25 05:31:34;;;;;;;11.30;3.83;;;;;;;9.39;100.00;99707.44;5008208;28;20038;-71
2023/10/25 05:34:00;;;;;;;15.18;4.70;;;;;;;9.37;100.00;99695.16;5008839;28;20029;-71
2023/10/25 05:36:26;;;;;;;18.90;4.28;;;;;;;9.39;100.00;99701.25;5015967;28;20030;-71
2023/10/25 05:38:51;;;;;;;18.42;4.25;;;;;;;9.39;100.00;99691.34;5014503;28;20038;-71
2023/10/25 05:41:20;;;;;;;14.55;4.10;;;;;;;9.38;100.00;99688.81;5003669;28;20419;-71
2023/10/25 05:43:54;;;;;;;11.65;3.92;;;;;;;9.36;100.00;99675.53;4990065;28;20025;-71
2023/10/25 05:46:20;;;;;;;15.00;4.43;;;;;;;9.38;100.00;99680.75;5002777;28;20487;-71
2023/10/25 05:48:45;;;;;;;16.73;4.40;;;;;;;9.39;100.00;99677.09;5007671;28;20026;-72
2023/10/25 05:51:11;;;;;;;13.45;4.20;;;;;;;9.37;100.00;99677.25;5005599;28;20478;-72
2023/10/25 05:53:36;;;;;;;13.60;4.10;;;;;;;9.35;100.00;99676.50;5007455;28;20129;-71
2023/10/25 05:56:02;;;;;;;18.35;4.70;;;;;;;9.34;100.00;99669.47;5012540;28;20132;-73
2023/10/25 05:58:28;;;;;;;17.48;4.43;;;;;;;9.37;100.00;99666.53;5008737;28;20026;-73
2023/10/25 06:00:55;;;;;;;16.35;4.82;;;;;;;9.34;100.00;99666.78;5006529;28;20116;-74
2023/10/25 06:03:22;;;;;;;12.80;3.67;;;;;;;9.38;100.00;99673.56;5006338;28;20498;-73
2023/10/25 06:05:54;;;;;;;13.70;3.67;;;;;;;9.38;100.00;99670.03;5012810;28;20026;-70
2023/10/25 06:08:20;;;;;;;15.98;4.10;;;;;;;9.39;100.00;99675.25;5008082;28;20085;-70
2023/10/25 06:10:45;;;;;;;15.77;4.75;;;;;;;9.40;100.00;99665.38;5011279;28;20072;-70
2023/10/25 06:13:11;;;;;;;14.98;4.40;;;;;;;9.41;100.00;99667.09;5015758;28;20022;-70
2023/10/25 06:15:37;;;;;;;13.70;3.83;;;;;;;9.43;100.00;99668.66;5009533;28;20125;-70
2023/10/25 06:18:07;;;;;;;17.13;4.05;;;;;;;9.43;100.00;99660.59;5010398;28;20029;-70
2023/10/25 06:20:33;;;;;;;11.88;3.70;;;;;;;9.44;100.00;99651.59;5012656;28;20329;-70
2023/10/25 06:22:58;;;;;;;17.40;4.57;;;;;;;9.41;100.00;99646.50;5009570;28;20037;-70
2023/10/25 06:25:24;;;;;;;19.70;4.10;;;;;;;9.45;100.00;99647.06;5011720;28;20030;-70
2023/10/25 06:27:49;;;;;;;12.98;3.97;;;;;;;9.48;100.00;99648.63;5014161;28;20030;-70
2023/10/25 06:30:15;;;;;;;14.70;4.38;;;;;;;9.47;100.00;99637.03;5005730;28;20040;-70
2023/10/25 06:32:40;;;;;;;12.30;3.30;;;;;;;9.47;100.00;99634.34;5017907;28;20033;-70
2023/10/25 06:35:06;;;;;;;9.55;3.30;;;;;;;9.46;100.00;99630.00;5002248;28;20060;-70
2023/10/25 06:37:31;;;;;;;15.23;3.97;;;;;;;9.47;100.00;99628.16;5010768;28;20356;-70
2023/10/25 06:39:57;;;;;;;12.68;3.85;;;;;;;9.47;100.00;99625.47;5010263;28;20018;-70
2023/10/25 06:42:22;;;;;;;16.17;4.03;;;;;;;9.47;100.00;99623.63;5011986;28;20030;-70
2023/10/25 06:44:48;;;;;;;10.95;3.75;;;;;;;9.49;100.00;99626.19;5011069;28;20039;-71
2023/10/25 06:47:13;;;;;;;12.27;3.78;;;;;;;9.51;100.00;99611.66;5009720;28;20091;-73
2023/10/25 06:49:39;;;;;;;12.48;3.35;;;;;;;9.52;100.00;99610.69;5004779;28;20497;-71
2023/10/25 06:52:05;;;;;;;12.90;3.80;;;;;;;9.51;100.00;99608.13;5008786;28;20116;-70
2023/10/25 06:54:31;;;;;;;13.95;3.70;;;;;;;9.51;100.00;99603.59;5019013;28;20545;-71
2023/10/25 06:56:57;;;;;;;10.48;3.38;;;;;;;9.53;100.00;99600.78;5009476;28;20030;-70
2023/10/25 06:59:23;;;;;;;14.23;3.90;;;;;;;9.52;100.00;99588.38;5015755;28;20108;-72
2023/10/25 07:01:57;;;;;;;12.38;3.90;;;;;;;9.53;100.00;99593.59;4992312;28;20042;-70
2023/10/25 07:04:25;;;;;;;10.95;3.60;;;;;;;9.53;100.00;99590.94;4991987;28;20061;-70
2023/10/25 07:06:51;;;;;;;12.35;3.70;;;;;;;9.56;100.00;99581.72;5005567;28;20033;-70
2023/10/25 07:09:16;;;;;;;6.60;3.20;;;;;;;9.58;100.00;99577.09;5007714;28;20018;-70
2023/10/25 07:11:41;;;;;;;13.43;3.92;;;;;;;9.55;100.00;99572.84;4994866;28;20720;-71
2023/10/25 07:14:07;;;;;;;11.98;3.45;;;;;;;9.58;100.00;99580.63;4992649;28;20062;-70
2023/10/25 07:16:32;;;;;;;9.90;3.80;;;;;;;9.61;100.00;99571.47;4984294;28;20023;-74
2023/10/25 07:18:57;;;;;;;12.27;3.92;;;;;;;9.59;100.00;99584.13;4989199;28;20471;-74
2023/10/25 07:21:22;;;;;;;10.10;3.30;;;;;;;9.62;100.00;99583.88;4987583;28;20449;-73
2023/10/25 07:23:48;;;;;;;13.02;3.72;;;;;;;9.60;100.00;99580.47;4989520;28;20026;-73
2023/10/25 07:26:13;;;;;;;14.93;4.05;;;;;;;9.64;100.00;99581.06;4989266;28;20391;-73
2023/10/25 07:28:38;;;;;;;17.48;4.00;;;;;;;9.66;100.00;99577.25;4989570;28;20038;-73
2023/10/25 07:31:04;;;;;;;13.23;3.67;;;;;;;9.66;100.00;99574.56;5001572;28;20026;-74
2023/10/25 07:33:29;;;;;;;11.73;3.72;;;;;;;9.66;100.00;99571.88;4990864;28;20248;-73
2023/10/25 07:35:55;;;;;;;12.57;3.58;;;;;;;9.68;100.00;99561.88;4988166;28;20028;-74
2023/10/25 07:38:20;;;;;;;15.48;4.38;;;;;;;9.68;100.00;99566.38;4987171;28;20046;-74
2023/10/25 07:40:48;;;;;;;13.82;4.47;;;;;;;9.65;100.00;99562.16;4986705;28;20030;-73
2023/10/25 07:43:13;;;;;;;12.40;3.80;;;;;;;9.63;100.00;99556.06;4984625;28;20066;-73
2023/10/25 07:45:39;;;;;;;18.27;4.50;;;;;;;9.62;100.00;99540.97;4983872;28;20415;-74
2023/10/25 07:48:04;;;;;;;11.77;4.45;;;;;;;9.64;100.00;99544.34;4988152;28;20019;-74
2023/10/25 07:50:30;;;;;;;12.73;4.35;;;;;;;9.63;100.00;99539.97;4990509;28;20096;-73
2023/10/25 07:52:56;;;;;;;12.35;3.60;;;;;;;9.63;100.00;99542.66;5001516;28;20030;-73
2023/10/25 07:55:21;;;;;;;16.13;4.20;;;;;;;9.61;100.00;99531.22;4983351;28;20073;-74
2023/10/25 07:57:46;;;;;;;15.95;4.00;;;;;;;9.60;100.00;99522.34;4987707;28;20392;-73
2023/10/25 08:00:12;;;;;;;15.13;3.78;;;;;;;9.59;100.00;99514.41;5005122;28;20041;-74
2023/10/25 08:02:37;;;;;;;13.20;3.63;;;;;;;9.58;100.00;99512.72;5006463;28;20034;-74
2023/10/25 08:05:03;;;;;;;10.35;3.47;;;;;;;9.58;100.00;99499.31;5017464;28;20461;-74
2023/10/25 08:07:30;;;;;;;14.20;4.22;;;;;;;9.60;100.00;99508.06;4999260;28;20025;-74
2023/10/25 08:09:56;;;;;;;12.27;4.05;;;;;;;9.57;100.00;99506.50;5004332;28;20080;-74
2023/10/25 08:12:21;;;;;;;11.50;3.95;;;;;;;9.56;100.00;99504.81;4999770;28;20121;-74
2023/10/25 08:14:46;;;;;;;13.85;3.90;;;;;;;9.58;100.00;99507.34;5013512;28;20030;-71
2023/10/25 08:17:12;;;;;;;17.63;4.38;;;;;;;9.57;100.00;99497.59;5008791;28;20501;-71
2023/10/25 08:19:37;;;;;;;10.85;3.55;;;;;;;9.57;100.00;99495.75;4992927;28;20230;-72
2023/10/25 08:22:05;;;;;;;14.68;4.20;;;;;;;9.58;100.00;99491.25;5006827;28;20518;-72
2023/10/25 08:24:30;;;;;;;14.93;4.30;;;;;;;9.60;100.00;99487.47;5003351;28;20138;-72
2023/10/25 08:26:58;;;;;;;11.60;3.90;;;;;;;9.60;100.00;99484.78;5002323;28;20046;-71
2023/10/25 08:29:24;;;;;;;12.05;3.30;;;;;;;9.60;100.00;99478.53;4989982;28;20030;-72
2023/10/25 08:31:49;;;;;;;7.50;3.35;;;;;;;9.63;100.00;99480.94;5003411;28;20629;-71
2023/10/25 08:34:14;;;;;;;14.63;3.63;;;;;;;9.64;100.00;99479.13;5010061;28;20451;-71
2023/10/25 08:36:40;;;;;;;14.27;4.32;;;;;;;9.66;100.00;99464.56;5002211;28;20060;-72
2023/10/25 08:39:05;;;;;;;17.30;4.45;;;;;;;9.68;100.00;99465.28;5008861;28;20045;-72
2023/10/25 08:41:31;;;;;;;10.07;3.60;;;;;;;9.68;100.00;99451.88;5006000;28;20029;-72
2023/10/25 08:43:58;;;;;;;14.38;4.38;;;;;;;9.69;100.00;99441.97;5001066;28;20056;-72
2023/10/25 08:46:24;;;;;;;12.52;4.28;;;;;;;9.67;100.00;99436.75;5005120;28;20056;-72
2023/10/25 08:48:52;;;;;;;13.65;4.38;;;;;;;9.68;100.00;99442.97;5009104;28;20049;-71
2023/10/25 08:51:18;;;;;;;13.07;3.97;;;;;;;9.68;100.00;99445.66;4997921;28;20087;-72
2023/10/25 08:53:45;;;;;;;13.07;3.72;;;;;;;9.69;100.00;99447.34;5007483;28;20033;-72
2023/10/25 08:56:11;;;;;;;12.15;4.18;;;;;;;9.68;100.00;99441.16;4998333;28;20113;-72
2023/10/25 08:58:36;;;;;;;11.75;4.00;;;;;;;9.68;100.00;99429.56;4993269;28;20399;-72
2023/10/25 09:01:02;;;;;;;14.70;4.88;;;;;;;9.69;100.00;99434.78;5008012;28;20029;-71
2023/10/25 09:03:30;;;;;;;14.88;4.68;;;;;;;9.70;100.00;99423.06;5011562;28;20029;-71
2023/10/25 09:05:56;;;;;;;14.00;4.38;;;;;;;9.68;100.00;99426.88;5014749;28;20061;-71
2023/10/25 09:08:24;;;;;;;15.43;4.70;;;;;;;9.69;100.00;99413.31;5008426;28;20124;-71
2023/10/25 09:11:18;;;;;;;12.27;4.45;;;;;;;9.71;100.00;99408.66;5008391;28;20034;-71
2023/10/25 09:13:44;;;;;;;18.92;4.78;;;;;;;9.68;100.00;99414.31;5004316;28;20048;-71
2023/10/25 09:16:10;;;;;;;19.38;4.72;;;;;;;9.67;100.00;99420.66;5008720;28;20041;-71
2023/10/25 09:18:37;;;;;;;13.40;4.25;;;;;;;9.65;100.00;99417.28;5001133;28;20052;-71
2023/10/25 09:21:03;;;;;;;13.38;4.25;;;;;;;9.65;100.00;99422.66;4999680;28;20100;-72
2023/10/25 09:23:29;;;;;;;13.85;4.38;;;;;;;9.65;100.00;99411.94;5008876;28;20415;-71
2023/10/25 09:25:58;;;;;;;17.30;4.22;;;;;;;9.65;100.00;99419.97;5014577;28;20258;-72
2023/10/25 09:28:29;;;;;;;13.47;4.13;;;;;;;9.63;100.00;99421.94;5005645;28;20101;-71
2023/10/25 09:31:00;;;;;;;10.85;4.28;;;;;;;9.60;100.00;99406.13;5003498;28;20024;-71
2023/10/25 09:33:30;;;;;;;14.85;4.28;;;;;;;9.59;100.00;99401.75;5011480;28;20072;-71
2023/10/25 09:35:57;;;;;;;15.07;4.50;;;;;;;9.57;100.00;99395.69;5016055;28;20059;-73
2023/10/25 09:38:23;;;;;;;13.48;4.20;;;;;;;9.56;100.00;99380.56;5025825;28;20036;-73
2023/10/25 09:40:50;;;;;;;13.18;4.07;;;;;;;9.54;100.00;99387.91;5025093;28;20030;-73
2023/10/25 09:43:19;;;;;;;15.50;4.45;;;;;;;9.52;100.00;99369.28;5012012;28;20022;-73
2023/10/25 09:45:50;;;;;;;14.50;4.63;;;;;;;9.52;100.00;99368.47;5026962;28;20029;-73
2023/10/25 09:48:18;;;;;;;13.98;4.90;;;;;;;9.52;100.00;99365.78;5015062;28;20088;-73
2023/10/25 09:50:53;;;;;;;13.80;4.22;;;;;;;9.50;100.00;99363.22;5021346;28;20064;-73
2023/10/25 09:53:30;;;;;;;15.82;5.22;;;;;;;9.49;100.00;99358.84;5015985;28;20036;-73
2023/10/25 09:56:02;;;;;;;10.35;4.05;;;;;;;9.49;100.00;99352.63;5021520;28;20060;-73
2023/10/25 09:58:32;;;;;;;16.08;5.10;;;;;;;9.47;100.00;99350.09;5018741;28;20030;-73
2023/10/25 10:00:57;;;;;;;16.17;5.43;;;;;;;9.45;100.00;99347.53;5021189;28;20030;-73
2023/10/25 10:03:38;;;;;;;13.40;4.28;;;;;;;9.45;100.00;99342.19;5024803;28;20034;-73
2023/10/25 10:06:22;;;;;;;12.95;4.80;;;;;;;9.48;100.00;99340.22;5006200;28;20029;-73
2023/10/25 10:08:54;;;;;;;17.85;5.78;;;;;;;9.45;100.00;99335.97;5023819;28;20026;-73
2023/10/25 10:11:25;;;;;;;14.77;5.13;;;;;;;9.45;100.00;99327.94;5024493;28;20072;-73
2023/10/25 10:14:27;;;;;;;16.77;4.90;;;;;;;9.45;100.00;99326.09;5026707;28;20049;-73
2023/10/25 10:16:56;;;;;;;16.02;5.03;;;;;;;9.42;100.00;99315.66;4972915;28;20057;-73
2023/10/25 10:19:22;;;;;;;18.08;5.70;;;;;;;9.42;100.00;99310.28;4980034;28;20034;-73
2023/10/25 10:22:21;;;;;;;17.52;5.63;;;;;;;9.44;100.00;99302.97;4970805;28;20382;-73
2023/10/25 10:24:53;;;;;;;17.88;6.00;;;;;;;9.47;100.00;99290.25;4975547;28;20043;-73
2023/10/25 10:27:26;;;;;;;18.67;6.57;;;;;;;9.49;100.00;99290.94;4970685;28;20031;-73
2023/10/25 10:29:51;;;;;;;17.92;6.45;;;;;;;9.48;100.00;99282.06;4966440;28;20028;-73
2023/10/25 10:32:17;;;;;;;16.15;5.85;;;;;;;9.49;100.00;99274.84;4975141;28;20038;-73
2023/10/25 10:34:56;;;;;;;17.65;6.10;;;;;;;9.48;100.00;99273.19;4982820;28;20111;-73
2023/10/25 10:37:24;;;;;;;14.83;5.30;;;;;;;9.50;100.00;99263.97;4972330;28;20023;-73
2023/10/25 10:39:55;;;;;;;16.92;6.00;;;;;;;9.50;100.00;99257.78;4959521;28;20027;-73
2023/10/25 10:42:31;;;;;;;15.32;6.00;;;;;;;9.52;100.00;99256.66;4973313;28;20039;-73
2023/10/25 10:44:57;;;;;;;18.38;5.38;;;;;;;9.51;100.00;99246.91;4956534;28;20035;-73
2023/10/25 10:47:32;;;;;;;16.08;5.45;;;;;;;9.53;100.00;99247.63;4943237;29;20590;-75
2023/10/25 10:50:07;;;;;;;17.08;5.43;;;;;;;9.54;100.00;99245.78;4963846;28;20275;-75
2023/10/25 10:52:32;;;;;;;15.25;5.05;;;;;;;9.57;100.00;99234.75;4960596;28;20486;-75
2023/10/25 10:54:58;;;;;;;13.38;4.65;;;;;;;9.57;100.00;99232.91;5011954;28;20030;-75
2023/10/25 10:57:26;;;;;;;17.95;5.80;;;;;;;9.58;100.00;99223.03;5005565;28;20108;-75
2023/10/25 10:59:51;;;;;;;15.35;5.43;;;;;;;9.60;100.00;99216.56;5011326;28;20054;-75
2023/10/25 11:02:17;;;;;;;15.85;5.25;;;;;;;9.61;100.00;99214.69;5010656;28;20026;-75
2023/10/25 11:04:42;;;;;;;15.27;4.95;;;;;;;9.62;100.00;99205.66;5010801;28;20534;-75
2023/10/25 11:07:08;;;;;;;15.73;5.60;;;;;;;9.64;100.00;99198.31;5018679;28;20026;-75
2023/10/25 11:09:33;;;;;;;16.50;5.75;;;;;;;9.65;100.00;99197.31;5007279;28;20080;-75
2023/10/25 11:12:07;;;;;;;14.07;4.97;;;;;;;9.67;100.00;99192.66;5011732;28;20033;-75
2023/10/25 11:14:44;;;;;;;17.52;6.15;;;;;;;9.67;100.00;99186.44;5015531;28;20033;-75
2023/10/25 11:17:09;;;;;;;15.38;5.15;;;;;;;9.67;100.00;99184.59;5007283;28;20046;-75
2023/10/25 11:19:35;;;;;;;19.33;5.18;;;;;;;9.67;100.00;99175.72;5009209;28;20365;-75
2023/10/25 11:22:01;;;;;;;18.52;5.00;;;;;;;9.68;100.00;99180.06;4999866;28;20030;-75
2023/10/25 11:24:26;;;;;;;16.08;5.10;;;;;;;9.69;100.00;99177.25;5008315;28;20030;-74